createdAt,value
2024-01-05T00:05:04.717Z,98311.38
2024-01-05T00:07:31.810Z,98327.75
2024-01-05T00:09:58.865Z,98321.88
2024-01-05T00:12:26.442Z,98294.16
2024-01-05T00:14:57.792Z,98308.66
2024-01-05T00:17:32.721Z,98315.75
2024-01-05T00:20:34.509Z,98310.84
2024-01-05T00:23:41.799Z,98297.03
2024-01-05T00:34:33.822Z,98321.44
2024-01-05T00:37:25.469Z,98272.09
2024-01-05T00:41:57.971Z,98286.91
2024-01-05T00:48:09.546Z,98335.41
2024-01-05T00:51:01.619Z,98322.78
2024-01-05T01:11:46.819Z,98289.63
2024-01-05T01:14:57.614Z,98264.19
2024-01-05T01:28:14.425Z,98317.38
2024-01-05T01:30:41.970Z,98283.03
2024-01-05T01:33:09.138Z,98322.53
2024-01-05T01:35:38.638Z,98323.41
2024-01-05T01:38:05.718Z,98318.22
2024-01-05T01:40:32.848Z,98270.66
2024-01-05T01:47:06.826Z,98325.19
2024-01-05T01:49:34.295Z,98329.47
2024-01-05T01:52:01.641Z,98305.94
2024-01-05T01:54:31.393Z,98339.88
2024-01-05T01:56:59.957Z,98292.97
2024-01-05T01:59:27.385Z,98315.41
2024-01-05T02:01:54.681Z,98268.16
2024-01-05T02:04:25.820Z,98278.03
2024-01-05T02:06:52.988Z,98300.13
2024-01-05T02:09:20.180Z,98299.59
2024-01-05T02:11:47.413Z,98322.53
2024-01-05T02:14:14.442Z,98299.84
2024-01-05T02:16:46.886Z,98302.53
2024-01-05T02:19:14.290Z,98322.78
2024-01-05T02:21:46.932Z,98285.38
2024-01-05T02:24:14.284Z,98307.69
2024-01-05T02:26:41.712Z,98291.72
2024-01-05T02:29:09.125Z,98314.47
2024-01-05T02:31:36.206Z,98300.38
2024-01-05T02:34:03.364Z,98294.03
2024-01-05T02:36:30.521Z,98302.84
2024-01-05T02:38:57.746Z,98306.34
2024-01-05T02:41:24.797Z,98298.69
2024-01-05T02:43:52.036Z,98332.22
2024-01-05T02:46:19.386Z,98323.88
2024-01-05T02:48:46.804Z,98282.22
2024-01-05T02:51:16.006Z,98323.41
2024-01-05T02:53:43.612Z,98299.84
2024-01-05T02:56:20.156Z,98308.41
2024-01-05T02:58:47.414Z,98313.75
2024-01-05T03:01:18.144Z,98353.19
2024-01-05T03:03:51.613Z,98310.66
2024-01-05T03:06:21.043Z,98306.72
2024-01-05T03:08:48.361Z,98334.44
2024-01-05T03:11:15.636Z,98307.22
2024-01-05T03:13:42.779Z,98329.09
2024-01-05T03:16:10.014Z,98336.13
2024-01-05T03:18:37.224Z,98307.41
2024-01-05T03:21:04.750Z,98318.88
2024-01-05T03:23:31.815Z,98337.25
2024-01-05T03:26:00.395Z,98357.78
2024-01-05T03:28:27.484Z,98338.28
2024-01-05T03:30:54.696Z,98363.25
2024-01-05T03:33:22.334Z,98353.22
2024-01-05T03:35:49.529Z,98340.34
2024-01-05T03:38:16.542Z,98373.97
2024-01-05T03:40:43.687Z,98357.19
2024-01-05T03:43:10.714Z,98358.34
2024-01-05T03:45:37.977Z,98369.44
2024-01-05T03:48:05.913Z,98393.63
2024-01-05T03:50:33.155Z,98350.16
2024-01-05T03:53:00.158Z,98392.41
2024-01-05T03:55:27.386Z,98389.47
2024-01-05T03:57:57.269Z,98380.50
2024-01-05T04:00:24.315Z,98367.88
2024-01-05T04:02:51.502Z,98391.66
2024-01-05T04:05:18.751Z,98408.31
2024-01-05T04:07:45.872Z,98396.56
2024-01-05T04:10:13.891Z,98374.84
2024-01-05T04:12:43.619Z,98414.22
2024-01-05T04:15:10.795Z,98426.78
2024-01-05T04:17:37.869Z,98397.06
2024-01-05T04:20:05.526Z,98433.72
2024-01-05T04:22:32.965Z,98423.59
2024-01-05T04:25:00.364Z,98407.84
2024-01-05T04:27:27.610Z,98432.22
2024-01-05T04:29:55.213Z,98432.75
2024-01-05T04:32:25.550Z,98448.25
2024-01-05T04:34:52.846Z,98412.38
2024-01-05T04:37:22.603Z,98406.72
2024-01-05T04:39:49.736Z,98410.00
2024-01-05T04:42:16.842Z,98418.41
2024-01-05T04:44:44.050Z,98432.25
2024-01-05T04:47:11.160Z,98441.69
2024-01-05T04:49:38.348Z,98416.28
2024-01-05T04:52:07.230Z,98416.88
2024-01-05T04:54:34.645Z,98408.38
2024-01-05T04:57:01.680Z,98449.84
2024-01-05T04:59:28.900Z,98422.41
2024-01-05T05:01:56.311Z,98408.19
2024-01-05T05:04:23.491Z,98402.06
2024-01-05T05:06:50.515Z,98429.94
2024-01-05T05:09:17.566Z,98395.00
2024-01-05T05:11:44.839Z,98358.97
2024-01-05T05:14:14.715Z,98434.94
2024-01-05T05:16:41.838Z,98451.63
2024-01-05T05:19:09.239Z,98378.56
2024-01-05T05:21:39.433Z,98375.88
2024-01-05T05:24:06.659Z,98404.66
2024-01-05T05:26:36.258Z,98455.47
2024-01-05T05:29:03.419Z,98403.09
2024-01-05T05:31:30.550Z,98430.31
2024-01-05T05:33:58.178Z,98451.81
2024-01-05T05:36:25.241Z,98436.66
2024-01-05T05:38:52.509Z,98400.81
2024-01-05T05:41:19.616Z,98409.59
2024-01-05T05:43:48.062Z,98439.56
2024-01-05T05:46:15.094Z,98434.56
2024-01-05T05:48:42.356Z,98422.84
2024-01-05T05:51:09.575Z,98434.94
2024-01-05T05:53:36.761Z,98414.63
2024-01-05T05:56:04.054Z,98417.09
2024-01-05T05:58:31.156Z,98413.41
2024-01-05T06:00:58.208Z,98412.31
2024-01-05T06:03:25.409Z,98406.84
2024-01-05T06:05:54.389Z,98411.66
2024-01-05T06:08:21.663Z,98364.09
2024-01-05T06:10:48.654Z,98377.53
2024-01-05T06:13:15.817Z,98404.59
2024-01-05T06:15:43.031Z,98396.78
2024-01-05T06:18:10.151Z,98379.09
2024-01-05T06:20:37.266Z,98383.88
2024-01-05T06:23:04.619Z,98397.09
2024-01-05T06:25:31.675Z,98382.31
2024-01-05T06:27:58.700Z,98420.31
2024-01-05T06:30:25.815Z,98441.56
2024-01-05T06:32:52.992Z,98422.00
2024-01-05T06:35:20.033Z,98444.84
2024-01-05T06:37:47.553Z,98455.72
2024-01-05T06:40:14.626Z,98418.47
2024-01-05T06:42:41.730Z,98408.34
2024-01-05T06:45:09.044Z,98450.97
2024-01-05T06:47:36.169Z,98427.59
2024-01-05T06:50:04.526Z,98456.88
2024-01-05T06:52:32.734Z,98442.38
2024-01-05T06:54:59.792Z,98452.09
2024-01-05T06:57:27.352Z,98422.47
2024-01-05T06:59:54.428Z,98424.66
2024-01-05T07:02:21.560Z,98434.94
2024-01-05T07:04:48.582Z,98439.22
2024-01-05T07:07:17.065Z,98404.91
2024-01-05T07:09:44.450Z,98442.59
2024-01-05T07:12:11.531Z,98403.22
2024-01-05T07:14:40.084Z,98404.47
2024-01-05T07:17:07.396Z,98460.09
2024-01-05T07:19:34.501Z,98431.41
2024-01-05T07:22:01.669Z,98406.56
2024-01-05T07:24:28.670Z,98412.78
2024-01-05T07:26:55.892Z,98439.59
2024-01-05T07:29:22.977Z,98449.88
2024-01-05T07:31:50.033Z,98472.78
2024-01-05T07:34:17.180Z,98480.84
2024-01-05T07:36:44.638Z,98478.66
2024-01-05T07:39:11.996Z,98444.84
2024-01-05T07:41:39.924Z,98475.63
2024-01-05T07:44:07.063Z,98479.72
2024-01-05T07:46:34.176Z,98467.41
2024-01-05T07:49:01.562Z,98496.69
2024-01-05T07:51:29.023Z,98465.47
2024-01-05T07:53:56.133Z,98483.59
2024-01-05T07:56:23.128Z,98472.56
2024-01-05T07:58:50.274Z,98479.19
2024-01-05T08:01:21.893Z,98492.88
2024-01-05T08:03:49.915Z,98449.50
2024-01-05T08:06:18.388Z,98455.41
2024-01-05T08:08:50.881Z,98464.03
2024-01-05T08:11:19.133Z,98455.16
2024-01-05T08:13:49.215Z,98457.78
2024-01-05T08:16:16.365Z,98469.69
2024-01-05T08:18:43.750Z,98475.34
2024-01-05T08:21:11.289Z,98469.28
2024-01-05T08:23:38.388Z,98487.19
2024-01-05T08:26:05.652Z,98467.38
2024-01-05T08:28:32.743Z,98481.66
2024-01-05T08:31:00.661Z,98464.75
2024-01-05T08:33:28.035Z,98487.16
2024-01-05T08:35:55.490Z,98501.66
2024-01-05T08:38:22.565Z,98458.66
2024-01-05T08:40:50.071Z,98468.69
2024-01-05T08:43:17.051Z,98454.47
2024-01-05T08:45:44.184Z,98461.03
2024-01-05T08:48:11.309Z,98438.00
2024-01-05T08:50:38.910Z,98448.56
2024-01-05T08:53:06.464Z,98450.25
2024-01-05T08:55:34.116Z,98450.69
2024-01-05T08:58:01.376Z,98446.56
2024-01-05T09:00:28.691Z,98469.84
2024-01-05T09:02:56.189Z,98417.44
2024-01-05T09:05:23.345Z,98455.94
2024-01-05T09:07:50.481Z,98446.94
2024-01-05T09:10:17.636Z,98415.63
2024-01-05T09:12:45.410Z,98409.03
2024-01-05T09:15:12.582Z,98431.81
2024-01-05T09:17:39.669Z,98443.94
2024-01-05T09:20:07.746Z,98445.09
2024-01-05T09:22:35.136Z,98438.78
2024-01-05T09:25:02.251Z,98424.38
2024-01-05T09:27:29.295Z,98442.38
2024-01-05T09:29:56.543Z,98424.47
2024-01-05T09:32:24.608Z,98453.88
2024-01-05T09:34:51.789Z,98432.13
2024-01-05T09:37:18.920Z,98439.69
2024-01-05T09:39:46.114Z,98433.84
2024-01-05T09:42:13.420Z,98421.78
2024-01-05T09:44:41.736Z,98431.22
2024-01-05T09:47:09.295Z,98422.13
2024-01-05T09:49:37.140Z,98425.94
2024-01-05T09:52:04.767Z,98406.66
2024-01-05T09:54:32.118Z,98416.34
2024-01-05T09:56:59.771Z,98415.00
2024-01-05T09:59:27.462Z,98419.09
2024-01-05T10:01:55.909Z,98401.81
2024-01-05T10:04:24.265Z,98399.91
2024-01-05T10:07:01.357Z,98398.47
2024-01-05T10:09:31.347Z,98423.00
2024-01-05T10:11:59.081Z,98428.75
2024-01-05T10:14:26.768Z,98403.25
2024-01-05T10:17:11.625Z,98376.16
2024-01-05T10:19:39.676Z,98411.44
2024-01-05T10:22:13.952Z,98417.13
2024-01-05T10:24:43.161Z,98413.88
2024-01-05T10:27:12.421Z,98456.13
2024-01-05T10:29:43.503Z,98414.94
2024-01-05T10:32:14.400Z,98421.59
2024-01-05T10:34:43.391Z,98423.88
2024-01-05T10:37:11.558Z,98437.03
2024-01-05T10:39:38.993Z,98434.13
2024-01-05T10:42:30.298Z,98443.56
2024-01-05T10:44:59.415Z,98473.78
2024-01-05T10:47:28.792Z,98468.72
2024-01-05T10:49:58.035Z,98448.19
2024-01-05T10:52:30.653Z,98423.84
2024-01-05T10:54:59.440Z,98446.66
2024-01-05T10:57:26.583Z,98448.41
2024-01-05T10:59:54.357Z,98444.63
2024-01-05T11:02:23.186Z,98453.25
2024-01-05T11:05:13.436Z,98461.06
2024-01-05T11:07:42.613Z,98473.13
2024-01-05T11:10:51.447Z,98472.75
2024-01-05T11:13:52.249Z,98482.88
2024-01-05T11:16:56.909Z,98482.41
2024-01-05T11:19:49.191Z,98466.69
2024-01-05T11:30:03.811Z,98481.34
2024-01-05T11:32:37.227Z,98464.16
2024-01-05T11:35:24.865Z,98507.75
2024-01-05T11:37:52.799Z,98488.50
2024-01-05T11:40:31.338Z,98507.47
2024-01-05T11:42:59.276Z,98482.34
2024-01-05T11:45:45.140Z,98491.25
2024-01-05T11:48:36.200Z,98488.75
2024-01-05T11:51:04.050Z,98488.50
2024-01-05T11:53:31.305Z,98494.06
2024-01-05T11:56:00.120Z,98488.75
2024-01-05T11:58:28.658Z,98483.84
2024-01-05T12:00:58.114Z,98482.03
2024-01-05T12:03:25.681Z,98498.91
2024-01-05T12:06:01.269Z,98486.81
2024-01-05T12:08:29.333Z,98477.88
2024-01-05T12:10:58.508Z,98480.97
2024-01-05T12:13:27.272Z,98487.09
2024-01-05T12:16:01.886Z,98469.06
2024-01-05T12:18:37.165Z,98479.13
2024-01-05T12:21:07.997Z,98479.94
2024-01-05T12:23:36.123Z,98523.41
2024-01-05T12:26:08.543Z,98480.56
2024-01-05T12:28:38.070Z,98519.31
2024-01-05T12:31:06.961Z,98487.31
2024-01-05T12:33:37.322Z,98512.31
2024-01-05T12:36:08.255Z,98511.72
2024-01-05T12:38:37.608Z,98535.69
2024-01-05T12:41:18.768Z,98528.31
2024-01-05T12:43:49.479Z,98500.81
2024-01-05T12:46:16.654Z,98510.38
2024-01-05T12:48:43.961Z,98526.63
2024-01-05T12:51:15.824Z,98464.31
2024-01-05T12:53:43.048Z,98496.34
2024-01-05T12:56:12.214Z,98499.19
2024-01-05T12:58:41.177Z,98524.88
2024-01-05T13:01:29.023Z,98526.47
2024-01-05T13:03:57.887Z,98528.16
2024-01-05T13:06:27.852Z,98521.94
2024-01-05T13:08:55.100Z,98555.44
2024-01-05T13:11:22.584Z,98553.44
2024-01-05T13:13:53.979Z,98518.75
2024-01-05T13:16:21.752Z,98536.91
2024-01-05T13:18:49.397Z,98550.19
2024-01-05T13:21:17.105Z,98500.09
2024-01-05T13:23:44.306Z,98506.13
2024-01-05T13:26:11.626Z,98511.25
2024-01-05T13:28:38.891Z,98484.38
2024-01-05T13:31:06.532Z,98522.81
2024-01-05T13:33:34.232Z,98533.34
2024-01-05T13:36:01.489Z,98540.09
2024-01-05T13:38:28.555Z,98514.88
2024-01-05T13:40:55.741Z,98548.84
2024-01-05T13:43:25.380Z,98496.47
2024-01-05T13:45:54.715Z,98560.53
2024-01-05T13:48:21.883Z,98488.13
2024-01-05T13:50:49.184Z,98479.41
2024-01-05T13:53:16.200Z,98533.75
2024-01-05T13:55:43.342Z,98525.50
2024-01-05T13:58:10.376Z,98508.22
2024-01-05T14:00:37.845Z,98535.81
2024-01-05T14:03:05.624Z,98535.81
2024-01-05T14:05:33.042Z,98497.50
2024-01-05T14:08:00.041Z,98513.72
2024-01-05T14:10:27.124Z,98562.84
2024-01-05T14:12:54.767Z,98517.44
2024-01-05T14:15:22.700Z,98577.16
2024-01-05T14:17:49.794Z,98557.03
2024-01-05T14:20:17.102Z,98584.06
2024-01-05T14:22:45.216Z,98588.44
2024-01-05T14:25:12.481Z,98578.38
2024-01-05T14:27:39.455Z,98573.00
2024-01-05T14:30:07.529Z,98579.03
2024-01-05T14:32:34.548Z,98541.47
2024-01-05T14:35:01.846Z,98537.84
2024-01-05T14:37:29.051Z,98586.06
2024-01-05T14:39:56.169Z,98588.81
2024-01-05T14:42:23.249Z,98604.97
2024-01-05T14:44:50.399Z,98602.34
2024-01-05T14:47:17.429Z,98579.28
2024-01-05T14:49:44.624Z,98603.84
2024-01-05T14:52:11.774Z,98595.94
2024-01-05T14:54:38.825Z,98592.41
2024-01-05T14:57:05.913Z,98582.72
2024-01-05T14:59:33.015Z,98572.13
2024-01-05T15:02:00.003Z,98570.28
2024-01-05T15:04:29.436Z,98579.13
2024-01-05T15:06:58.353Z,98609.22
2024-01-05T15:09:25.715Z,98571.81
2024-01-05T15:11:52.754Z,98608.53
2024-01-05T15:14:19.824Z,98576.41
2024-01-05T15:16:46.928Z,98597.53
2024-01-05T15:19:14.142Z,98611.72
2024-01-05T15:21:41.393Z,98604.97
2024-01-05T15:24:08.461Z,98576.53
2024-01-05T15:26:43.896Z,98593.44
2024-01-05T15:29:11.037Z,98585.38
2024-01-05T15:31:38.104Z,98608.97
2024-01-05T15:34:05.325Z,98595.44
2024-01-05T15:36:32.491Z,98600.69
2024-01-05T15:38:59.537Z,98598.31
2024-01-05T15:41:26.959Z,98595.75
2024-01-05T15:43:54.168Z,98566.53
2024-01-05T15:46:23.169Z,98608.59
2024-01-05T15:48:51.104Z,98592.31
2024-01-05T15:51:18.166Z,98621.81
2024-01-05T15:53:45.306Z,98609.53
2024-01-05T15:56:12.433Z,98584.97
2024-01-05T15:58:39.658Z,98606.03
2024-01-05T16:01:07.270Z,98614.50
2024-01-05T16:03:34.738Z,98596.00
2024-01-05T16:06:02.217Z,98596.06
2024-01-05T16:08:29.640Z,98589.88
2024-01-05T16:10:57.303Z,98626.34
2024-01-05T16:13:25.330Z,98610.66
2024-01-05T16:15:52.368Z,98609.25
2024-01-05T16:18:19.650Z,98621.94
2024-01-05T16:20:46.906Z,98652.53
2024-01-05T16:23:14.053Z,98636.28
2024-01-05T16:25:43.204Z,98638.22
2024-01-05T16:28:10.216Z,98647.09
2024-01-05T16:30:37.721Z,98623.59
2024-01-05T16:33:05.513Z,98636.28
2024-01-05T16:35:32.700Z,98604.63
2024-01-05T16:37:59.772Z,98619.44
2024-01-05T16:40:27.586Z,98609.69
2024-01-05T16:42:55.447Z,98635.91
2024-01-05T16:45:23.079Z,98646.94
2024-01-05T16:47:50.403Z,98639.06
2024-01-05T16:50:18.545Z,98650.44
2024-01-05T16:52:45.817Z,98642.91
2024-01-05T16:55:12.896Z,98630.88
2024-01-05T16:57:40.104Z,98630.66
2024-01-05T17:00:07.908Z,98621.97
2024-01-05T17:02:35.181Z,98628.88
2024-01-05T17:05:02.209Z,98647.63
2024-01-05T17:07:29.350Z,98640.50
2024-01-05T17:09:56.600Z,98662.59
2024-01-05T17:12:24.008Z,98617.72
2024-01-05T17:14:51.096Z,98655.88
2024-01-05T17:17:18.348Z,98597.28
2024-01-05T17:19:45.577Z,98639.72
2024-01-05T17:22:12.834Z,98624.22
2024-01-05T17:24:39.980Z,98649.19
2024-01-05T17:27:08.214Z,98660.72
2024-01-05T17:29:35.880Z,98673.69
2024-01-05T17:32:03.316Z,98682.13
2024-01-05T17:34:30.457Z,98659.81
2024-01-05T17:36:57.631Z,98654.25
2024-01-05T17:39:24.845Z,98645.47
2024-01-05T17:41:52.689Z,98690.47
2024-01-05T17:44:19.718Z,98648.03
2024-01-05T17:46:46.873Z,98655.97
2024-01-05T17:49:14.156Z,98681.88
2024-01-05T17:51:41.540Z,98665.44
2024-01-05T17:54:08.752Z,98686.06
2024-01-05T17:56:36.257Z,98682.47
2024-01-05T17:59:03.997Z,98685.88
2024-01-05T18:01:35.110Z,98711.75
2024-01-05T18:04:02.611Z,98672.81
2024-01-05T18:06:29.985Z,98702.94
2024-01-05T18:08:57.260Z,98695.16
2024-01-05T18:11:25.735Z,98723.19
2024-01-05T18:13:56.852Z,98701.78
2024-01-05T18:16:26.068Z,98694.72
2024-01-05T18:18:54.263Z,98702.41
2024-01-05T18:21:26.331Z,98728.34
2024-01-05T18:24:04.971Z,98712.00
2024-01-05T18:26:32.231Z,98729.94
2024-01-05T18:29:03.968Z,98683.38
2024-01-05T18:31:37.784Z,98697.94
2024-01-05T18:34:06.895Z,98736.66
2024-01-05T18:36:35.828Z,98701.41
2024-01-05T18:39:04.530Z,98704.97
2024-01-05T18:41:33.338Z,98712.03
2024-01-05T18:44:01.640Z,98712.72
2024-01-05T18:46:28.860Z,98714.25
2024-01-05T18:48:56.867Z,98703.72
2024-01-05T18:51:24.746Z,98681.19
2024-01-05T18:53:51.816Z,98720.81
2024-01-05T18:56:18.930Z,98721.22
2024-01-05T18:58:45.920Z,98696.09
2024-01-05T19:01:13.710Z,98699.94
2024-01-05T19:03:40.808Z,98730.47
2024-01-05T19:06:08.121Z,98710.56
2024-01-05T19:08:35.141Z,98719.38
2024-01-05T19:11:04.922Z,98696.81
2024-01-05T19:13:32.007Z,98684.03
2024-01-05T19:15:59.068Z,98669.75
2024-01-05T19:18:26.386Z,98715.09
2024-01-05T19:20:53.642Z,98735.25
2024-01-05T19:23:20.833Z,98725.16
2024-01-05T19:25:47.836Z,98711.47
2024-01-05T19:28:14.845Z,98685.38
2024-01-05T19:30:41.880Z,98743.22
2024-01-05T19:33:09.154Z,98724.72
2024-01-05T19:35:36.273Z,98722.56
2024-01-05T19:38:03.524Z,98721.81
2024-01-05T19:40:30.500Z,98722.69
2024-01-05T19:42:57.542Z,98732.66
2024-01-05T19:45:24.512Z,98739.16
2024-01-05T19:47:51.586Z,98716.31
2024-01-05T19:50:18.620Z,98672.81
2024-01-05T19:52:45.913Z,98725.25
2024-01-05T19:55:12.910Z,98692.31
2024-01-05T19:57:39.955Z,98673.19
2024-01-05T20:00:07.484Z,98689.28
2024-01-05T20:02:34.520Z,98734.56
2024-01-05T20:05:01.458Z,98738.47
2024-01-05T20:07:28.500Z,98745.59
2024-01-05T20:09:55.572Z,98698.84
2024-01-05T20:12:22.735Z,98738.91
2024-01-05T20:14:49.960Z,98686.56
2024-01-05T20:17:17.005Z,98705.75
2024-01-05T20:19:44.072Z,98707.44
2024-01-05T20:22:11.260Z,98713.00
2024-01-05T20:24:38.558Z,98758.22
2024-01-05T20:27:05.830Z,98732.03
2024-01-05T20:29:32.896Z,98718.44
2024-01-05T20:31:59.991Z,98729.13
2024-01-05T20:34:27.068Z,98720.50
2024-01-05T20:36:54.324Z,98749.03
2024-01-05T20:39:21.657Z,98707.47
2024-01-05T20:41:49.099Z,98707.63
2024-01-05T20:44:16.948Z,98724.16
2024-01-05T20:46:45.233Z,98729.47
2024-01-05T20:49:17.468Z,98742.28
2024-01-05T20:51:44.820Z,98694.56
2024-01-05T20:54:11.902Z,98746.88
2024-01-05T20:56:39.063Z,98731.91
2024-01-05T20:59:06.029Z,98694.31
2024-01-05T21:01:33.114Z,98718.25
2024-01-05T21:04:00.450Z,98733.63
2024-01-05T21:06:27.726Z,98725.75
2024-01-05T21:08:54.790Z,98730.53
2024-01-05T21:11:23.473Z,98733.19
2024-01-05T21:13:50.643Z,98696.88
2024-01-05T21:16:17.766Z,98730.41
2024-01-05T21:18:44.877Z,98716.44
2024-01-05T21:21:11.939Z,98715.34
2024-01-05T21:23:39.011Z,98759.00
2024-01-05T21:26:06.284Z,98760.13
2024-01-05T21:28:33.419Z,98741.25
2024-01-05T21:31:05.551Z,98749.13
2024-01-05T21:33:32.881Z,98757.06
2024-01-05T21:35:59.887Z,98750.78
2024-01-05T21:38:26.965Z,98741.88
2024-01-05T21:40:53.997Z,98742.19
2024-01-05T21:43:21.104Z,98744.84
2024-01-05T21:45:48.207Z,98765.56
2024-01-05T21:48:15.435Z,98751.56
2024-01-05T21:50:42.643Z,98683.44
2024-01-05T21:53:09.762Z,98740.13
2024-01-05T21:55:36.796Z,98689.50
2024-01-05T21:58:04.087Z,98735.94
2024-01-05T22:00:31.104Z,98740.88
2024-01-05T22:02:58.604Z,98721.56
2024-01-05T22:05:25.680Z,98752.28
2024-01-05T22:07:52.722Z,98735.31
2024-01-05T22:10:19.805Z,98746.31
2024-01-05T22:12:46.979Z,98753.09
2024-01-05T22:15:14.098Z,98723.19
2024-01-05T22:17:41.293Z,98752.78
2024-01-05T22:20:08.851Z,98730.00
2024-01-05T22:22:35.948Z,98710.63
2024-01-05T22:25:02.934Z,98745.59
2024-01-05T22:27:29.967Z,98733.38
2024-01-05T22:29:56.939Z,98742.59
2024-01-05T22:32:24.052Z,98730.16
2024-01-05T22:34:51.354Z,98739.34
2024-01-05T22:37:18.510Z,98730.22
2024-01-05T22:39:45.603Z,98714.22
2024-01-05T22:42:12.857Z,98719.66
2024-01-05T22:44:43.134Z,98701.41
2024-01-05T22:47:10.312Z,98732.50
2024-01-05T22:49:41.444Z,98712.72
2024-01-05T22:52:08.829Z,98758.66
2024-01-05T22:54:36.331Z,98730.28
2024-01-05T22:57:03.504Z,98740.03
2024-01-05T22:59:30.479Z,98766.41
2024-01-05T23:01:57.604Z,98801.31
2024-01-05T23:04:24.753Z,98793.53
2024-01-05T23:06:52.227Z,98782.22
2024-01-05T23:09:19.238Z,98767.09
2024-01-05T23:11:46.354Z,98765.50
2024-01-05T23:14:13.436Z,98757.00
2024-01-05T23:16:40.588Z,98789.69
2024-01-05T23:19:07.972Z,98773.16
2024-01-05T23:21:35.238Z,98784.56
2024-01-05T23:24:02.280Z,98788.09
2024-01-05T23:26:29.279Z,98793.31
2024-01-05T23:28:56.307Z,98804.75
2024-01-05T23:31:23.473Z,98791.22
2024-01-05T23:34:04.166Z,98774.75
2024-01-05T23:36:37.686Z,98818.78
2024-01-05T23:39:04.905Z,98791.06
2024-01-05T23:41:32.065Z,98798.81
2024-01-05T23:43:59.188Z,98789.56
2024-01-05T23:46:26.484Z,98801.44
2024-01-05T23:48:53.636Z,98811.84
2024-01-05T23:51:20.789Z,98791.94
2024-01-05T23:53:47.801Z,98758.91
2024-01-05T23:56:16.754Z,98771.66
2024-01-05T23:58:43.870Z,98793.75
